sensor_id;sensor_type;location;lat;lon;timestamp;P1;durP1;ratioP1;P2;durP2;ratioP2
18883;SDS011;9574;47.282;9.640;2024-03-25T00:01:55;1.47;;;0.90;;
18883;SDS011;9574;47.282;9.640;2024-03-25T00:04:23;2.23;;;0.97;;
18883;SDS011;9574;47.282;9.640;2024-03-25T00:06:49;0.70;;;0.70;;
18883;SDS011;9574;47.282;9.640;2024-03-25T00:09:17;1.00;;;1.00;;
18883;SDS011;9574;47.282;9.640;2024-03-25T00:11:43;1.53;;;1.10;;
18883;SDS011;9574;47.282;9.640;2024-03-25T00:14:11;2.77;;;0.90;;
18883;SDS011;9574;47.282;9.640;2024-03-25T00:16:37;2.10;;;1.00;;
18883;SDS011;9574;47.282;9.640;2024-03-25T00:19:04;2.43;;;0.97;;
18883;SDS011;9574;47.282;9.640;2024-03-25T00:21:31;0.90;;;0.90;;
18883;SDS011;9574;47.282;9.640;2024-03-25T00:23:58;1.80;;;0.90;;
18883;SDS011;9574;47.282;9.640;2024-03-25T00:26:26;0.80;;;0.70;;
18883;SDS011;9574;47.282;9.640;2024-03-25T00:28:53;3.90;;;1.00;;
18883;SDS011;9574;47.282;9.640;2024-03-25T00:31:19;0.87;;;0.77;;
18883;SDS011;9574;47.282;9.640;2024-03-25T00:33:46;0.73;;;0.73;;
18883;SDS011;9574;47.282;9.640;2024-03-25T00:36:12;0.90;;;0.80;;
18883;SDS011;9574;47.282;9.640;2024-03-25T00:38:41;2.17;;;0.80;;
18883;SDS011;9574;47.282;9.640;2024-03-25T00:41:08;1.20;;;1.10;;
18883;SDS011;9574;47.282;9.640;2024-03-25T00:43:35;0.80;;;0.80;;
18883;SDS011;9574;47.282;9.640;2024-03-25T00:46:01;0.70;;;0.70;;
18883;SDS011;9574;47.282;9.640;2024-03-25T00:48:28;2.83;;;1.00;;
18883;SDS011;9574;47.282;9.640;2024-03-25T00:50:55;1.60;;;1.33;;
18883;SDS011;9574;47.282;9.640;2024-03-25T00:53:22;1.60;;;0.87;;
18883;SDS011;9574;47.282;9.640;2024-03-25T00:55:49;0.90;;;0.70;;
18883;SDS011;9574;47.282;9.640;2024-03-25T00:58:17;0.83;;;0.80;;
18883;SDS011;9574;47.282;9.640;2024-03-25T01:00:43;1.00;;;0.90;;
18883;SDS011;9574;47.282;9.640;2024-03-25T01:03:10;1.83;;;0.97;;
18883;SDS011;9574;47.282;9.640;2024-03-25T01:05:36;1.00;;;0.87;;
18883;SDS011;9574;47.282;9.640;2024-03-25T01:08:04;0.97;;;0.80;;
18883;SDS011;9574;47.282;9.640;2024-03-25T01:10:30;1.37;;;0.80;;
18883;SDS011;9574;47.282;9.640;2024-03-25T01:12:58;1.20;;;1.10;;
18883;SDS011;9574;47.282;9.640;2024-03-25T01:15:24;0.97;;;0.80;;
18883;SDS011;9574;47.282;9.640;2024-03-25T01:17:51;2.80;;;1.07;;
18883;SDS011;9574;47.282;9.640;2024-03-25T01:20:17;3.13;;;1.07;;
18883;SDS011;9574;47.282;9.640;2024-03-25T01:22:45;3.70;;;1.13;;
18883;SDS011;9574;47.282;9.640;2024-03-25T01:25:10;2.40;;;1.00;;
18883;SDS011;9574;47.282;9.640;2024-03-25T01:27:37;0.87;;;0.87;;
18883;SDS011;9574;47.282;9.640;2024-03-25T01:30:06;0.80;;;0.80;;
18883;SDS011;9574;47.282;9.640;2024-03-25T01:32:33;1.20;;;0.87;;
18883;SDS011;9574;47.282;9.640;2024-03-25T01:34:59;1.27;;;0.80;;
18883;SDS011;9574;47.282;9.640;2024-03-25T01:37:26;0.90;;;0.87;;
18883;SDS011;9574;47.282;9.640;2024-03-25T01:39:52;1.10;;;1.00;;
18883;SDS011;9574;47.282;9.640;2024-03-25T01:42:19;1.10;;;1.07;;
18883;SDS011;9574;47.282;9.640;2024-03-25T01:44:45;0.83;;;0.83;;
18883;SDS011;9574;47.282;9.640;2024-03-25T01:47:15;0.80;;;0.80;;
18883;SDS011;9574;47.282;9.640;2024-03-25T01:49:41;0.83;;;0.83;;
18883;SDS011;9574;47.282;9.640;2024-03-25T01:52:08;2.80;;;0.70;;
18883;SDS011;9574;47.282;9.640;2024-03-25T01:54:34;2.37;;;0.93;;
18883;SDS011;9574;47.282;9.640;2024-03-25T01:57:02;3.27;;;0.90;;
18883;SDS011;9574;47.282;9.640;2024-03-25T01:59:29;1.90;;;0.90;;
18883;SDS011;9574;47.282;9.640;2024-03-25T02:01:56;3.90;;;1.03;;
18883;SDS011;9574;47.282;9.640;2024-03-25T02:04:24;1.00;;;0.90;;
18883;SDS011;9574;47.282;9.640;2024-03-25T02:06:52;0.70;;;0.70;;
18883;SDS011;9574;47.282;9.640;2024-03-25T02:09:20;2.07;;;1.00;;
18883;SDS011;9574;47.282;9.640;2024-03-25T02:11:49;1.50;;;1.20;;
18883;SDS011;9574;47.282;9.640;2024-03-25T02:14:16;1.40;;;1.27;;
18883;SDS011;9574;47.282;9.640;2024-03-25T02:16:43;1.00;;;0.90;;
18883;SDS011;9574;47.282;9.640;2024-03-25T02:19:09;1.47;;;1.10;;
18883;SDS011;9574;47.282;9.640;2024-03-25T02:21:40;1.30;;;1.10;;
18883;SDS011;9574;47.282;9.640;2024-03-25T02:24:08;3.50;;;0.80;;
18883;SDS011;9574;47.282;9.640;2024-03-25T02:26:37;1.40;;;1.00;;
18883;SDS011;9574;47.282;9.640;2024-03-25T02:29:03;1.53;;;0.60;;
18883;SDS011;9574;47.282;9.640;2024-03-25T02:31:30;0.90;;;0.80;;
18883;SDS011;9574;47.282;9.640;2024-03-25T02:33:57;1.60;;;1.47;;
18883;SDS011;9574;47.282;9.640;2024-03-25T02:36:24;1.60;;;1.40;;
18883;SDS011;9574;47.282;9.640;2024-03-25T02:38:50;1.50;;;0.77;;
18883;SDS011;9574;47.282;9.640;2024-03-25T02:41:18;2.63;;;1.00;;
18883;SDS011;9574;47.282;9.640;2024-03-25T02:43:45;1.77;;;1.00;;
18883;SDS011;9574;47.282;9.640;2024-03-25T02:46:12;1.13;;;1.03;;
18883;SDS011;9574;47.282;9.640;2024-03-25T02:48:38;0.70;;;0.70;;
18883;SDS011;9574;47.282;9.640;2024-03-25T02:51:05;0.70;;;0.70;;
18883;SDS011;9574;47.282;9.640;2024-03-25T02:53:32;0.70;;;0.70;;
18883;SDS011;9574;47.282;9.640;2024-03-25T02:55:59;1.80;;;0.80;;
18883;SDS011;9574;47.282;9.640;2024-03-25T02:58:25;1.20;;;0.93;;
18883;SDS011;9574;47.282;9.640;2024-03-25T03:00:53;4.53;;;0.87;;
18883;SDS011;9574;47.282;9.640;2024-03-25T03:03:19;2.43;;;0.80;;
18883;SDS011;9574;47.282;9.640;2024-03-25T03:05:47;0.80;;;0.80;;
18883;SDS011;9574;47.282;9.640;2024-03-25T03:08:13;1.07;;;0.97;;
18883;SDS011;9574;47.282;9.640;2024-03-25T03:10:40;1.33;;;1.10;;
18883;SDS011;9574;47.282;9.640;2024-03-25T03:13:06;1.53;;;1.03;;
18883;SDS011;9574;47.282;9.640;2024-03-25T03:15:35;1.30;;;1.20;;
18883;SDS011;9574;47.282;9.640;2024-03-25T03:18:02;1.00;;;0.80;;
18883;SDS011;9574;47.282;9.640;2024-03-25T03:20:30;1.97;;;1.17;;
18883;SDS011;9574;47.282;9.640;2024-03-25T03:22:56;1.77;;;1.43;;
18883;SDS011;9574;47.282;9.640;2024-03-25T03:25:23;1.83;;;0.90;;
18883;SDS011;9574;47.282;9.640;2024-03-25T03:27:49;0.80;;;0.80;;
18883;SDS011;9574;47.282;9.640;2024-03-25T03:30:16;1.70;;;1.17;;
18883;SDS011;9574;47.282;9.640;2024-03-25T03:32:42;1.00;;;0.90;;
18883;SDS011;9574;47.282;9.640;2024-03-25T03:35:11;1.20;;;1.10;;
18883;SDS011;9574;47.282;9.640;2024-03-25T03:37:37;1.00;;;1.00;;
18883;SDS011;9574;47.282;9.640;2024-03-25T03:40:04;1.13;;;1.00;;
18883;SDS011;9574;47.282;9.640;2024-03-25T03:42:31;1.13;;;1.00;;
18883;SDS011;9574;47.282;9.640;2024-03-25T03:44:58;1.00;;;0.90;;
18883;SDS011;9574;47.282;9.640;2024-03-25T03:47:24;4.00;;;1.20;;
18883;SDS011;9574;47.282;9.640;2024-03-25T03:49:51;2.00;;;0.90;;
18883;SDS011;9574;47.282;9.640;2024-03-25T03:52:19;1.43;;;1.23;;
18883;SDS011;9574;47.282;9.640;2024-03-25T03:54:46;1.50;;;0.90;;
18883;SDS011;9574;47.282;9.640;2024-03-25T03:57:12;0.70;;;0.70;;
18883;SDS011;9574;47.282;9.640;2024-03-25T03:59:40;0.73;;;0.70;;
18883;SDS011;9574;47.282;9.640;2024-03-25T04:02:07;0.70;;;0.70;;
18883;SDS011;9574;47.282;9.640;2024-03-25T04:04:34;3.53;;;2.50;;
18883;SDS011;9574;47.282;9.640;2024-03-25T04:07:01;1.40;;;1.30;;
18883;SDS011;9574;47.282;9.640;2024-03-25T04:09:29;1.93;;;0.90;;
18883;SDS011;9574;47.282;9.640;2024-03-25T04:11:55;1.03;;;0.97;;
18883;SDS011;9574;47.282;9.640;2024-03-25T04:14:22;0.90;;;0.90;;
18883;SDS011;9574;47.282;9.640;2024-03-25T04:16:48;1.43;;;0.93;;
18883;SDS011;9574;47.282;9.640;2024-03-25T04:19:18;4.00;;;1.10;;
18883;SDS011;9574;47.282;9.640;2024-03-25T04:21:44;1.03;;;0.93;;
18883;SDS011;9574;47.282;9.640;2024-03-25T04:24:12;3.33;;;1.10;;
18883;SDS011;9574;47.282;9.640;2024-03-25T04:26:39;1.63;;;1.10;;
18883;SDS011;9574;47.282;9.640;2024-03-25T04:29:06;0.93;;;0.93;;
18883;SDS011;9574;47.282;9.640;2024-03-25T04:31:32;1.17;;;1.07;;
18883;SDS011;9574;47.282;9.640;2024-03-25T04:33:59;1.20;;;0.90;;
18883;SDS011;9574;47.282;9.640;2024-03-25T04:36:25;1.00;;;0.90;;
18883;SDS011;9574;47.282;9.640;2024-03-25T04:38:52;2.77;;;2.27;;
18883;SDS011;9574;47.282;9.640;2024-03-25T04:41:18;3.50;;;2.50;;
18883;SDS011;9574;47.282;9.640;2024-03-25T04:43:46;1.97;;;1.70;;
18883;SDS011;9574;47.282;9.640;2024-03-25T04:46:12;4.77;;;1.60;;
18883;SDS011;9574;47.282;9.640;2024-03-25T04:48:38;1.43;;;1.33;;
18883;SDS011;9574;47.282;9.640;2024-03-25T04:51:04;2.77;;;1.20;;
18883;SDS011;9574;47.282;9.640;2024-03-25T04:53:30;1.00;;;1.00;;
18883;SDS011;9574;47.282;9.640;2024-03-25T04:55:56;1.60;;;1.40;;
18883;SDS011;9574;47.282;9.640;2024-03-25T04:58:22;1.30;;;1.20;;
18883;SDS011;9574;47.282;9.640;2024-03-25T05:00:50;1.30;;;1.20;;
18883;SDS011;9574;47.282;9.640;2024-03-25T05:03:16;1.57;;;0.93;;
18883;SDS011;9574;47.282;9.640;2024-03-25T05:05:42;2.20;;;1.40;;
18883;SDS011;9574;47.282;9.640;2024-03-25T05:08:08;1.50;;;1.03;;
18883;SDS011;9574;47.282;9.640;2024-03-25T05:10:34;1.83;;;1.20;;
18883;SDS011;9574;47.282;9.640;2024-03-25T05:13:00;1.87;;;1.53;;
18883;SDS011;9574;47.282;9.640;2024-03-25T05:15:26;1.47;;;1.37;;
18883;SDS011;9574;47.282;9.640;2024-03-25T05:17:53;1.40;;;1.30;;
18883;SDS011;9574;47.282;9.640;2024-03-25T05:20:19;1.70;;;1.57;;
18883;SDS011;9574;47.282;9.640;2024-03-25T05:22:45;2.10;;;1.60;;
18883;SDS011;9574;47.282;9.640;2024-03-25T05:25:12;1.37;;;1.20;;
18883;SDS011;9574;47.282;9.640;2024-03-25T05:27:38;1.60;;;1.50;;
18883;SDS011;9574;47.282;9.640;2024-03-25T05:30:05;1.70;;;1.50;;
18883;SDS011;9574;47.282;9.640;2024-03-25T05:32:31;2.03;;;1.50;;
18883;SDS011;9574;47.282;9.640;2024-03-25T05:34:59;5.10;;;1.40;;
18883;SDS011;9574;47.282;9.640;2024-03-25T05:37:25;1.47;;;1.20;;
18883;SDS011;9574;47.282;9.640;2024-03-25T05:39:51;2.53;;;1.60;;
18883;SDS011;9574;47.282;9.640;2024-03-25T05:42:17;2.07;;;1.47;;
18883;SDS011;9574;47.282;9.640;2024-03-25T05:44:44;1.53;;;1.37;;
18883;SDS011;9574;47.282;9.640;2024-03-25T05:47:10;3.27;;;1.50;;
18883;SDS011;9574;47.282;9.640;2024-03-25T05:49:36;1.60;;;1.50;;
18883;SDS011;9574;47.282;9.640;2024-03-25T05:52:04;3.47;;;1.70;;
18883;SDS011;9574;47.282;9.640;2024-03-25T05:54:30;2.70;;;1.57;;
18883;SDS011;9574;47.282;9.640;2024-03-25T05:56:57;2.13;;;1.43;;
18883;SDS011;9574;47.282;9.640;2024-03-25T05:59:23;5.07;;;2.07;;
18883;SDS011;9574;47.282;9.640;2024-03-25T06:01:49;1.97;;;1.60;;
18883;SDS011;9574;47.282;9.640;2024-03-25T06:04:15;2.00;;;1.73;;
18883;SDS011;9574;47.282;9.640;2024-03-25T06:06:40;4.07;;;1.90;;
18883;SDS011;9574;47.282;9.640;2024-03-25T06:09:08;3.10;;;1.77;;
18883;SDS011;9574;47.282;9.640;2024-03-25T06:11:34;3.23;;;2.40;;
18883;SDS011;9574;47.282;9.640;2024-03-25T06:14:00;3.67;;;2.60;;
18883;SDS011;9574;47.282;9.640;2024-03-25T06:16:26;4.83;;;2.97;;
18883;SDS011;9574;47.282;9.640;2024-03-25T06:18:52;4.80;;;2.97;;
18883;SDS011;9574;47.282;9.640;2024-03-25T06:21:18;3.17;;;2.60;;
18883;SDS011;9574;47.282;9.640;2024-03-25T06:23:44;4.70;;;3.03;;
18883;SDS011;9574;47.282;9.640;2024-03-25T06:26:12;3.73;;;2.40;;
18883;SDS011;9574;47.282;9.640;2024-03-25T06:28:38;4.30;;;2.57;;
18883;SDS011;9574;47.282;9.640;2024-03-25T06:31:04;3.40;;;2.43;;
18883;SDS011;9574;47.282;9.640;2024-03-25T06:33:44;3.03;;;2.10;;
18883;SDS011;9574;47.282;9.640;2024-03-25T06:36:37;5.63;;;1.97;;
18883;SDS011;9574;47.282;9.640;2024-03-25T06:39:03;2.17;;;1.90;;
18883;SDS011;9574;47.282;9.640;2024-03-25T06:41:30;3.93;;;2.00;;
18883;SDS011;9574;47.282;9.640;2024-03-25T06:43:56;3.97;;;2.17;;
18883;SDS011;9574;47.282;9.640;2024-03-25T06:46:22;3.47;;;1.80;;
18883;SDS011;9574;47.282;9.640;2024-03-25T06:48:49;2.53;;;1.70;;
18883;SDS011;9574;47.282;9.640;2024-03-25T06:51:15;2.70;;;2.10;;
18883;SDS011;9574;47.282;9.640;2024-03-25T06:53:41;3.00;;;2.00;;
18883;SDS011;9574;47.282;9.640;2024-03-25T06:56:07;3.10;;;2.23;;
18883;SDS011;9574;47.282;9.640;2024-03-25T06:58:34;3.10;;;2.27;;
18883;SDS011;9574;47.282;9.640;2024-03-25T07:01:03;5.27;;;2.63;;
18883;SDS011;9574;47.282;9.640;2024-03-25T07:03:30;2.00;;;1.80;;
18883;SDS011;9574;47.282;9.640;2024-03-25T07:05:56;2.23;;;1.60;;
18883;SDS011;9574;47.282;9.640;2024-03-25T07:08:22;2.20;;;1.53;;
18883;SDS011;9574;47.282;9.640;2024-03-25T07:10:48;2.83;;;1.60;;
18883;SDS011;9574;47.282;9.640;2024-03-25T07:13:15;2.60;;;1.73;;
18883;SDS011;9574;47.282;9.640;2024-03-25T07:15:42;1.87;;;1.30;;
18883;SDS011;9574;47.282;9.640;2024-03-25T07:18:08;1.93;;;1.40;;
18883;SDS011;9574;47.282;9.640;2024-03-25T07:20:35;1.37;;;1.27;;
18883;SDS011;9574;47.282;9.640;2024-03-25T07:23:01;1.67;;;1.30;;
18883;SDS011;9574;47.282;9.640;2024-03-25T07:25:28;1.50;;;1.40;;
18883;SDS011;9574;47.282;9.640;2024-03-25T07:27:54;1.60;;;1.20;;
18883;SDS011;9574;47.282;9.640;2024-03-25T07:30:20;1.83;;;1.53;;
18883;SDS011;9574;47.282;9.640;2024-03-25T07:32:47;1.50;;;1.40;;
18883;SDS011;9574;47.282;9.640;2024-03-25T07:35:13;1.60;;;1.40;;
18883;SDS011;9574;47.282;9.640;2024-03-25T07:37:39;3.20;;;1.30;;
18883;SDS011;9574;47.282;9.640;2024-03-25T07:40:06;4.00;;;1.63;;
18883;SDS011;9574;47.282;9.640;2024-03-25T07:42:34;1.27;;;1.17;;
18883;SDS011;9574;47.282;9.640;2024-03-25T07:45:00;2.30;;;1.57;;
18883;SDS011;9574;47.282;9.640;2024-03-25T07:47:26;5.33;;;1.50;;
18883;SDS011;9574;47.282;9.640;2024-03-25T07:49:53;1.40;;;1.30;;
18883;SDS011;9574;47.282;9.640;2024-03-25T07:52:19;1.93;;;1.10;;
18883;SDS011;9574;47.282;9.640;2024-03-25T07:54:45;1.37;;;1.20;;
18883;SDS011;9574;47.282;9.640;2024-03-25T07:57:11;1.77;;;1.30;;
18883;SDS011;9574;47.282;9.640;2024-03-25T07:59:37;1.10;;;1.00;;
18883;SDS011;9574;47.282;9.640;2024-03-25T08:02:03;3.37;;;1.40;;
18883;SDS011;9574;47.282;9.640;2024-03-25T08:04:29;3.50;;;1.20;;
18883;SDS011;9574;47.282;9.640;2024-03-25T08:06:56;2.50;;;1.10;;
18883;SDS011;9574;47.282;9.640;2024-03-25T08:09:22;1.50;;;1.23;;
18883;SDS011;9574;47.282;9.640;2024-03-25T08:11:48;1.90;;;1.20;;
18883;SDS011;9574;47.282;9.640;2024-03-25T08:14:14;1.53;;;1.40;;
18883;SDS011;9574;47.282;9.640;2024-03-25T08:16:40;1.07;;;1.07;;
18883;SDS011;9574;47.282;9.640;2024-03-25T08:19:06;3.67;;;1.20;;
18883;SDS011;9574;47.282;9.640;2024-03-25T08:21:32;1.20;;;1.10;;
18883;SDS011;9574;47.282;9.640;2024-03-25T08:24:00;2.50;;;1.17;;
18883;SDS011;9574;47.282;9.640;2024-03-25T08:26:26;1.43;;;1.00;;
18883;SDS011;9574;47.282;9.640;2024-03-25T08:28:52;3.40;;;1.27;;
18883;SDS011;9574;47.282;9.640;2024-03-25T08:31:18;2.90;;;1.30;;
18883;SDS011;9574;47.282;9.640;2024-03-25T08:33:44;1.90;;;1.10;;
18883;SDS011;9574;47.282;9.640;2024-03-25T08:36:10;1.30;;;1.20;;
18883;SDS011;9574;47.282;9.640;2024-03-25T08:38:36;1.03;;;1.00;;
18883;SDS011;9574;47.282;9.640;2024-03-25T08:41:03;1.00;;;0.90;;
18883;SDS011;9574;47.282;9.640;2024-03-25T08:43:29;1.20;;;1.10;;
18883;SDS011;9574;47.282;9.640;2024-03-25T08:45:55;2.73;;;1.30;;
18883;SDS011;9574;47.282;9.640;2024-03-25T08:48:22;1.30;;;1.20;;
18883;SDS011;9574;47.282;9.640;2024-03-25T08:50:47;3.63;;;1.20;;
18883;SDS011;9574;47.282;9.640;2024-03-25T08:53:13;1.77;;;1.00;;
18883;SDS011;9574;47.282;9.640;2024-03-25T08:55:43;1.20;;;1.07;;
18883;SDS011;9574;47.282;9.640;2024-03-25T08:58:12;2.83;;;1.37;;
18883;SDS011;9574;47.282;9.640;2024-03-25T09:00:38;2.90;;;1.10;;
18883;SDS011;9574;47.282;9.640;2024-03-25T09:03:04;1.20;;;1.10;;
18883;SDS011;9574;47.282;9.640;2024-03-25T09:05:30;1.30;;;1.00;;
18883;SDS011;9574;47.282;9.640;2024-03-25T09:07:56;1.33;;;1.23;;
18883;SDS011;9574;47.282;9.640;2024-03-25T09:10:22;1.33;;;1.20;;
18883;SDS011;9574;47.282;9.640;2024-03-25T09:13:06;2.20;;;1.20;;
18883;SDS011;9574;47.282;9.640;2024-03-25T09:15:33;1.67;;;1.43;;
18883;SDS011;9574;47.282;9.640;2024-03-25T09:18:00;1.20;;;1.10;;
18883;SDS011;9574;47.282;9.640;2024-03-25T09:20:25;2.50;;;1.40;;
18883;SDS011;9574;47.282;9.640;2024-03-25T09:22:51;1.50;;;1.20;;
18883;SDS011;9574;47.282;9.640;2024-03-25T09:25:18;2.30;;;1.20;;
18883;SDS011;9574;47.282;9.640;2024-03-25T09:27:45;1.50;;;1.30;;
18883;SDS011;9574;47.282;9.640;2024-03-25T09:30:12;1.30;;;1.20;;
18883;SDS011;9574;47.282;9.640;2024-03-25T09:32:39;1.63;;;1.17;;
18883;SDS011;9574;47.282;9.640;2024-03-25T09:35:06;1.80;;;0.80;;
18883;SDS011;9574;47.282;9.640;2024-03-25T09:37:32;1.83;;;1.10;;
18883;SDS011;9574;47.282;9.640;2024-03-25T09:39:58;1.23;;;1.07;;
18883;SDS011;9574;47.282;9.640;2024-03-25T09:42:25;1.30;;;1.20;;
18883;SDS011;9574;47.282;9.640;2024-03-25T09:44:53;1.43;;;1.03;;
18883;SDS011;9574;47.282;9.640;2024-03-25T09:47:19;1.03;;;1.00;;
18883;SDS011;9574;47.282;9.640;2024-03-25T09:49:47;1.20;;;1.07;;
18883;SDS011;9574;47.282;9.640;2024-03-25T09:52:13;1.90;;;1.20;;
18883;SDS011;9574;47.282;9.640;2024-03-25T09:54:40;2.70;;;1.27;;
18883;SDS011;9574;47.282;9.640;2024-03-25T09:57:06;1.60;;;1.13;;
18883;SDS011;9574;47.282;9.640;2024-03-25T09:59:32;1.60;;;1.13;;
18883;SDS011;9574;47.282;9.640;2024-03-25T10:01:58;0.93;;;0.93;;
18883;SDS011;9574;47.282;9.640;2024-03-25T10:04:26;1.00;;;0.93;;
18883;SDS011;9574;47.282;9.640;2024-03-25T10:06:53;2.80;;;1.00;;
18883;SDS011;9574;47.282;9.640;2024-03-25T10:09:19;0.90;;;0.90;;
18883;SDS011;9574;47.282;9.640;2024-03-25T10:11:47;1.80;;;0.90;;
18883;SDS011;9574;47.282;9.640;2024-03-25T10:14:14;1.27;;;1.17;;
18883;SDS011;9574;47.282;9.640;2024-03-25T10:16:40;1.03;;;0.90;;
18883;SDS011;9574;47.282;9.640;2024-03-25T10:19:06;1.10;;;1.00;;
18883;SDS011;9574;47.282;9.640;2024-03-25T10:21:32;2.17;;;0.90;;
18883;SDS011;9574;47.282;9.640;2024-03-25T10:24:00;1.13;;;0.90;;
18883;SDS011;9574;47.282;9.640;2024-03-25T10:26:26;0.70;;;0.70;;
18883;SDS011;9574;47.282;9.640;2024-03-25T10:29:02;1.87;;;1.00;;
18883;SDS011;9574;47.282;9.640;2024-03-25T10:31:29;1.30;;;1.20;;
18883;SDS011;9574;47.282;9.640;2024-03-25T10:33:56;1.37;;;1.00;;
18883;SDS011;9574;47.282;9.640;2024-03-25T10:36:22;2.10;;;0.93;;
18883;SDS011;9574;47.282;9.640;2024-03-25T10:38:49;1.57;;;1.10;;
18883;SDS011;9574;47.282;9.640;2024-03-25T10:41:18;1.00;;;0.80;;
18883;SDS011;9574;47.282;9.640;2024-03-25T10:43:46;1.10;;;1.00;;
18883;SDS011;9574;47.282;9.640;2024-03-25T10:46:14;1.10;;;1.00;;
18883;SDS011;9574;47.282;9.640;2024-03-25T10:48:43;1.73;;;1.00;;
18883;SDS011;9574;47.282;9.640;2024-03-25T10:51:18;1.20;;;1.00;;
18883;SDS011;9574;47.282;9.640;2024-03-25T10:53:46;0.93;;;0.90;;
18883;SDS011;9574;47.282;9.640;2024-03-25T10:56:14;1.70;;;0.93;;
18883;SDS011;9574;47.282;9.640;2024-03-25T10:58:42;4.17;;;1.10;;
18883;SDS011;9574;47.282;9.640;2024-03-25T11:01:09;1.17;;;0.87;;
18883;SDS011;9574;47.282;9.640;2024-03-25T11:03:36;1.10;;;1.00;;
18883;SDS011;9574;47.282;9.640;2024-03-25T11:06:03;1.90;;;1.23;;
18883;SDS011;9574;47.282;9.640;2024-03-25T11:08:30;1.37;;;0.70;;
18883;SDS011;9574;47.282;9.640;2024-03-25T11:10:57;1.63;;;0.90;;
18883;SDS011;9574;47.282;9.640;2024-03-25T11:13:23;1.00;;;0.90;;
18883;SDS011;9574;47.282;9.640;2024-03-25T11:15:51;2.30;;;1.00;;
18883;SDS011;9574;47.282;9.640;2024-03-25T11:18:17;1.00;;;0.80;;
18883;SDS011;9574;47.282;9.640;2024-03-25T11:20:47;1.30;;;1.10;;
18883;SDS011;9574;47.282;9.640;2024-03-25T11:23:13;1.80;;;0.90;;
18883;SDS011;9574;47.282;9.640;2024-03-25T11:25:40;0.70;;;0.70;;
18883;SDS011;9574;47.282;9.640;2024-03-25T11:28:07;1.10;;;1.00;;
18883;SDS011;9574;47.282;9.640;2024-03-25T11:30:34;1.17;;;0.90;;
18883;SDS011;9574;47.282;9.640;2024-03-25T11:33:03;1.17;;;0.80;;
18883;SDS011;9574;47.282;9.640;2024-03-25T11:35:29;0.50;;;0.50;;
18883;SDS011;9574;47.282;9.640;2024-03-25T11:38:01;2.27;;;1.00;;
18883;SDS011;9574;47.282;9.640;2024-03-25T11:40:27;2.40;;;1.00;;
18883;SDS011;9574;47.282;9.640;2024-03-25T11:42:53;2.23;;;0.77;;
18883;SDS011;9574;47.282;9.640;2024-03-25T11:45:20;1.53;;;0.90;;
18883;SDS011;9574;47.282;9.640;2024-03-25T11:47:48;2.03;;;1.10;;
18883;SDS011;9574;47.282;9.640;2024-03-25T11:50:16;2.77;;;1.10;;
18883;SDS011;9574;47.282;9.640;2024-03-25T11:52:43;1.00;;;0.90;;
18883;SDS011;9574;47.282;9.640;2024-03-25T11:55:09;1.43;;;0.90;;
18883;SDS011;9574;47.282;9.640;2024-03-25T11:57:36;1.10;;;1.00;;
18883;SDS011;9574;47.282;9.640;2024-03-25T12:00:03;1.20;;;0.80;;
18883;SDS011;9574;47.282;9.640;2024-03-25T12:02:31;1.00;;;0.80;;
18883;SDS011;9574;47.282;9.640;2024-03-25T12:04:57;0.70;;;0.70;;
18883;SDS011;9574;47.282;9.640;2024-03-25T12:07:25;1.23;;;0.70;;
18883;SDS011;9574;47.282;9.640;2024-03-25T12:09:50;1.63;;;0.80;;
18883;SDS011;9574;47.282;9.640;2024-03-25T12:12:35;1.57;;;0.93;;
18883;SDS011;9574;47.282;9.640;2024-03-25T12:15:01;1.60;;;1.00;;
18883;SDS011;9574;47.282;9.640;2024-03-25T12:17:28;1.07;;;1.03;;
18883;SDS011;9574;47.282;9.640;2024-03-25T12:19:58;0.97;;;0.87;;
18883;SDS011;9574;47.282;9.640;2024-03-25T12:22:26;1.00;;;0.70;;
18883;SDS011;9574;47.282;9.640;2024-03-25T12:24:52;0.80;;;0.80;;
18883;SDS011;9574;47.282;9.640;2024-03-25T12:27:18;2.33;;;0.87;;
18883;SDS011;9574;47.282;9.640;2024-03-25T12:29:44;1.73;;;0.80;;
18883;SDS011;9574;47.282;9.640;2024-03-25T12:32:10;4.17;;;0.97;;
18883;SDS011;9574;47.282;9.640;2024-03-25T12:34:36;0.80;;;0.80;;
18883;SDS011;9574;47.282;9.640;2024-03-25T12:37:02;1.07;;;0.93;;
18883;SDS011;9574;47.282;9.640;2024-03-25T12:39:30;1.70;;;1.00;;
18883;SDS011;9574;47.282;9.640;2024-03-25T12:41:56;0.93;;;0.90;;
18883;SDS011;9574;47.282;9.640;2024-03-25T12:44:22;1.30;;;0.90;;
18883;SDS011;9574;47.282;9.640;2024-03-25T12:46:48;1.03;;;0.97;;
18883;SDS011;9574;47.282;9.640;2024-03-25T12:49:15;1.13;;;0.80;;
18883;SDS011;9574;47.282;9.640;2024-03-25T12:51:41;1.13;;;0.77;;
18883;SDS011;9574;47.282;9.640;2024-03-25T12:54:07;2.93;;;0.80;;
18883;SDS011;9574;47.282;9.640;2024-03-25T12:56:35;2.70;;;1.00;;
18883;SDS011;9574;47.282;9.640;2024-03-25T12:59:01;1.70;;;1.00;;
18883;SDS011;9574;47.282;9.640;2024-03-25T13:01:27;1.07;;;0.70;;
18883;SDS011;9574;47.282;9.640;2024-03-25T13:03:53;2.27;;;0.73;;
18883;SDS011;9574;47.282;9.640;2024-03-25T13:06:19;1.90;;;1.20;;
18883;SDS011;9574;47.282;9.640;2024-03-25T13:08:45;1.77;;;0.60;;
18883;SDS011;9574;47.282;9.640;2024-03-25T13:11:11;1.37;;;0.70;;
18883;SDS011;9574;47.282;9.640;2024-03-25T13:13:38;1.13;;;0.97;;
18883;SDS011;9574;47.282;9.640;2024-03-25T13:16:04;0.97;;;0.93;;
18883;SDS011;9574;47.282;9.640;2024-03-25T13:18:30;0.87;;;0.80;;
18883;SDS011;9574;47.282;9.640;2024-03-25T13:20:57;0.87;;;0.80;;
18883;SDS011;9574;47.282;9.640;2024-03-25T13:23:23;1.17;;;0.75;;
18883;SDS011;9574;47.282;9.640;2024-03-25T13:25:49;2.72;;;0.82;;
18883;SDS011;9574;47.282;9.640;2024-03-25T13:28:15;0.60;;;0.60;;
18883;SDS011;9574;47.282;9.640;2024-03-25T13:30:43;0.80;;;0.80;;
18883;SDS011;9574;47.282;9.640;2024-03-25T13:33:09;1.40;;;0.70;;
18883;SDS011;9574;47.282;9.640;2024-03-25T13:35:35;1.42;;;0.90;;
18883;SDS011;9574;47.282;9.640;2024-03-25T13:38:01;0.95;;;0.70;;
18883;SDS011;9574;47.282;9.640;2024-03-25T13:40:27;1.07;;;0.80;;
18883;SDS011;9574;47.282;9.640;2024-03-25T13:42:53;4.00;;;0.90;;
18883;SDS011;9574;47.282;9.640;2024-03-25T13:45:19;0.80;;;0.80;;
18883;SDS011;9574;47.282;9.640;2024-03-25T13:47:46;1.00;;;0.90;;
18883;SDS011;9574;47.282;9.640;2024-03-25T13:50:12;1.55;;;0.85;;
18883;SDS011;9574;47.282;9.640;2024-03-25T13:52:38;2.05;;;0.90;;
18883;SDS011;9574;47.282;9.640;2024-03-25T13:55:04;1.83;;;0.70;;
18883;SDS011;9574;47.282;9.640;2024-03-25T13:57:31;0.60;;;0.60;;
18883;SDS011;9574;47.282;9.640;2024-03-25T13:59:56;0.80;;;0.50;;
18883;SDS011;9574;47.282;9.640;2024-03-25T14:02:23;0.98;;;0.65;;
18883;SDS011;9574;47.282;9.640;2024-03-25T14:04:50;1.08;;;0.82;;
18883;SDS011;9574;47.282;9.640;2024-03-25T14:07:16;0.70;;;0.60;;
18883;SDS011;9574;47.282;9.640;2024-03-25T14:09:43;1.40;;;0.70;;
18883;SDS011;9574;47.282;9.640;2024-03-25T14:12:09;0.75;;;0.50;;
18883;SDS011;9574;47.282;9.640;2024-03-25T14:14:35;0.98;;;0.68;;
18883;SDS011;9574;47.282;9.640;2024-03-25T14:17:01;1.63;;;0.60;;
18883;SDS011;9574;47.282;9.640;2024-03-25T14:19:27;1.42;;;0.60;;
18883;SDS011;9574;47.282;9.640;2024-03-25T14:21:55;1.08;;;0.85;;
18883;SDS011;9574;47.282;9.640;2024-03-25T14:24:20;2.65;;;0.68;;
18883;SDS011;9574;47.282;9.640;2024-03-25T14:26:46;1.25;;;0.85;;
18883;SDS011;9574;47.282;9.640;2024-03-25T14:29:12;1.00;;;0.80;;
18883;SDS011;9574;47.282;9.640;2024-03-25T14:31:38;0.90;;;0.80;;
18883;SDS011;9574;47.282;9.640;2024-03-25T14:34:04;0.70;;;0.70;;
18883;SDS011;9574;47.282;9.640;2024-03-25T14:36:30;1.90;;;0.90;;
18883;SDS011;9574;47.282;9.640;2024-03-25T14:38:58;1.00;;;0.60;;
18883;SDS011;9574;47.282;9.640;2024-03-25T14:41:24;0.77;;;0.63;;
18883;SDS011;9574;47.282;9.640;2024-03-25T14:43:50;2.30;;;0.97;;
18883;SDS011;9574;47.282;9.640;2024-03-25T14:46:16;2.28;;;0.70;;
18883;SDS011;9574;47.282;9.640;2024-03-25T14:48:42;1.48;;;0.80;;
18883;SDS011;9574;47.282;9.640;2024-03-25T14:51:08;1.23;;;0.80;;
18883;SDS011;9574;47.282;9.640;2024-03-25T14:53:34;1.40;;;0.80;;
18883;SDS011;9574;47.282;9.640;2024-03-25T14:56:01;1.98;;;0.60;;
18883;SDS011;9574;47.282;9.640;2024-03-25T14:58:27;0.95;;;0.85;;